createdAt,value
2018-08-20T00:00:44.284Z,19.10
2018-08-20T00:03:11.155Z,19.00
2018-08-20T00:05:38.639Z,19.00
2018-08-20T00:08:05.515Z,18.90
2018-08-20T00:10:32.404Z,18.80
2018-08-20T00:12:59.323Z,18.70
2018-08-20T00:15:26.207Z,18.70
2018-08-20T00:17:53.136Z,18.60
2018-08-20T00:20:20.052Z,18.50
2018-08-20T00:22:47.043Z,18.50
2018-08-20T00:25:15.673Z,18.40
2018-08-20T00:27:42.774Z,18.30
2018-08-20T00:30:11.156Z,18.20
2018-08-20T00:32:38.858Z,18.20
2018-08-20T00:35:05.723Z,18.10
2018-08-20T00:37:32.911Z,18.10
2018-08-20T00:39:59.779Z,18.00
2018-08-20T00:42:26.671Z,18.00
2018-08-20T00:44:53.579Z,18.00
2018-08-20T00:47:20.448Z,18.00
2018-08-20T00:49:47.419Z,18.00
2018-08-20T00:52:14.343Z,18.00
2018-08-20T00:54:41.338Z,18.00
2018-08-20T00:57:08.212Z,18.10
2018-08-20T00:59:35.117Z,18.00
2018-08-20T01:02:01.983Z,18.10
2018-08-20T01:04:28.887Z,18.10
2018-08-20T01:06:55.747Z,18.10
2018-08-20T01:09:23.767Z,18.10
2018-08-20T01:11:51.410Z,18.10
2018-08-20T01:14:19.379Z,18.10
2018-08-20T01:16:46.322Z,18.00
2018-08-20T01:19:13.192Z,18.00
2018-08-20T01:21:40.109Z,18.00
2018-08-20T01:24:06.975Z,17.90
2018-08-20T01:26:33.844Z,17.90
2018-08-20T01:29:00.843Z,17.80
2018-08-20T01:31:27.989Z,17.80
2018-08-20T01:33:54.895Z,17.80
2018-08-20T01:36:21.758Z,17.90
2018-08-20T01:38:48.629Z,17.90
2018-08-20T01:41:15.527Z,17.90
2018-08-20T01:43:42.395Z,17.90
2018-08-20T01:46:09.487Z,17.90
2018-08-20T01:48:36.447Z,17.90
2018-08-20T01:51:03.404Z,17.80
2018-08-20T01:53:30.422Z,17.70
2018-08-20T01:55:57.282Z,17.70
2018-08-20T01:58:24.216Z,17.70
2018-08-20T02:00:51.094Z,17.70
2018-08-20T02:03:17.956Z,17.60
2018-08-20T02:05:44.871Z,17.60
2018-08-20T02:08:11.887Z,17.50
2018-08-20T02:10:38.763Z,17.50
2018-08-20T02:13:05.631Z,17.40
2018-08-20T02:15:32.592Z,17.40
2018-08-20T02:17:59.507Z,17.40
2018-08-20T02:20:26.376Z,17.30
2018-08-20T02:22:53.279Z,17.30
2018-08-20T02:25:20.143Z,17.20
2018-08-20T02:27:47.007Z,17.20
2018-08-20T02:30:13.920Z,17.20
2018-08-20T02:32:40.787Z,17.10
2018-08-20T02:35:08.200Z,17.10
2018-08-20T02:37:40.760Z,17.20
2018-08-20T02:40:07.731Z,17.10
2018-08-20T02:42:35.235Z,17.10
2018-08-20T02:45:02.431Z,17.10
2018-08-20T02:47:29.343Z,17.00
2018-08-20T02:49:56.214Z,17.00
2018-08-20T02:52:23.167Z,16.90
2018-08-20T02:54:50.043Z,16.90
2018-08-20T02:57:16.959Z,16.80
2018-08-20T02:59:43.833Z,16.80
2018-08-20T03:02:10.850Z,16.70
2018-08-20T03:04:37.688Z,16.70
2018-08-20T03:07:04.555Z,16.70
2018-08-20T03:09:31.468Z,16.70
2018-08-20T03:11:58.335Z,16.70
2018-08-20T03:14:25.251Z,16.60
2018-08-20T03:16:52.111Z,16.60
2018-08-20T03:19:19.035Z,16.60
2018-08-20T03:21:45.899Z,16.50
2018-08-20T03:24:12.768Z,16.50
2018-08-20T03:26:40.016Z,16.50
2018-08-20T03:29:06.883Z,16.60
2018-08-20T03:31:34.165Z,16.50
2018-08-20T03:34:01.043Z,16.60
2018-08-20T03:36:27.923Z,16.50
2018-08-20T03:38:54.824Z,16.50
2018-08-20T03:41:21.788Z,16.50
2018-08-20T03:43:48.689Z,16.50
2018-08-20T03:46:15.831Z,16.50
2018-08-20T03:48:42.792Z,16.50
2018-08-20T03:51:09.658Z,16.40
2018-08-20T03:53:36.575Z,16.40
2018-08-20T03:56:03.738Z,16.40
2018-08-20T03:58:30.648Z,16.40
2018-08-20T04:00:57.571Z,16.40
2018-08-20T04:03:24.444Z,16.30
2018-08-20T04:05:51.320Z,16.30
2018-08-20T04:08:18.230Z,16.30
2018-08-20T04:10:45.432Z,16.30
2018-08-20T04:13:12.304Z,16.30
2018-08-20T04:15:39.215Z,16.30
2018-08-20T04:18:06.123Z,16.30
2018-08-20T04:20:32.991Z,16.30
2018-08-20T04:22:59.911Z,16.40
2018-08-20T04:25:26.787Z,16.40
2018-08-20T04:27:53.643Z,16.50
2018-08-20T04:30:20.556Z,16.50
2018-08-20T04:32:47.463Z,16.50
2018-08-20T04:35:14.395Z,16.50
2018-08-20T04:37:41.268Z,16.60
2018-08-20T04:40:08.147Z,16.60
2018-08-20T04:42:35.047Z,16.60
2018-08-20T04:45:01.919Z,16.60
2018-08-20T04:47:28.835Z,16.60
2018-08-20T04:49:55.784Z,16.60
2018-08-20T04:52:22.660Z,16.60
2018-08-20T04:54:49.566Z,16.70
2018-08-20T04:57:16.436Z,16.70
2018-08-20T04:59:43.343Z,16.70
2018-08-20T05:02:10.216Z,16.80
2018-08-20T05:04:37.171Z,16.80
2018-08-20T05:07:04.191Z,16.90
2018-08-20T05:09:31.124Z,16.90
2018-08-20T05:11:57.999Z,17.00
2018-08-20T05:14:24.891Z,17.00
2018-08-20T05:16:51.812Z,17.10
2018-08-20T05:19:18.683Z,17.20
2018-08-20T05:21:45.591Z,17.20
2018-08-20T05:24:12.464Z,17.40
2018-08-20T05:26:39.377Z,17.50
2018-08-20T05:29:06.567Z,17.60
2018-08-20T05:31:33.440Z,17.80
2018-08-20T05:34:00.365Z,17.90
2018-08-20T05:36:27.232Z,18.00
2018-08-20T05:38:54.095Z,18.10
2018-08-20T05:41:21.011Z,18.20
2018-08-20T05:43:47.883Z,18.30
2018-08-20T05:46:14.799Z,18.50
2018-08-20T05:48:41.888Z,18.90
2018-08-20T05:51:09.104Z,19.30
2018-08-20T05:53:35.966Z,19.70
2018-08-20T05:56:02.840Z,20.20
2018-08-20T05:58:29.763Z,20.70
2018-08-20T06:00:56.640Z,21.00
2018-08-20T06:03:23.512Z,21.30
2018-08-20T06:05:50.475Z,21.50
2018-08-20T06:08:17.340Z,21.60
2018-08-20T06:10:44.232Z,21.70
2018-08-20T06:13:11.099Z,22.00
2018-08-20T06:15:38.014Z,22.20
2018-08-20T06:18:05.156Z,22.40
2018-08-20T06:20:32.093Z,22.60
2018-08-20T06:22:58.955Z,22.90
2018-08-20T06:25:25.868Z,23.20
2018-08-20T06:27:52.737Z,23.40
2018-08-20T06:30:19.652Z,23.30
2018-08-20T06:32:46.951Z,23.50
2018-08-20T06:35:13.871Z,23.30
2018-08-20T06:37:40.955Z,23.20
2018-08-20T06:40:09.695Z,23.30
2018-08-20T06:42:36.623Z,23.30
2018-08-20T06:45:03.880Z,23.40
2018-08-20T06:47:30.752Z,23.30
2018-08-20T06:49:57.667Z,23.20
2018-08-20T06:52:24.835Z,23.20
2018-08-20T06:54:51.813Z,23.10
2018-08-20T06:57:18.680Z,22.90
2018-08-20T06:59:45.551Z,22.90
2018-08-20T07:02:12.467Z,22.90
2018-08-20T07:04:39.675Z,23.00
2018-08-20T07:07:06.601Z,23.30
2018-08-20T07:09:33.471Z,23.30
2018-08-20T07:12:00.621Z,23.30
2018-08-20T07:14:27.536Z,23.40
2018-08-20T07:16:54.447Z,23.40
2018-08-20T07:19:21.323Z,23.30
2018-08-20T07:21:48.239Z,23.30
2018-08-20T07:24:15.111Z,23.30
2018-08-20T07:26:42.100Z,23.30
2018-08-20T07:29:08.964Z,23.20
2018-08-20T07:31:35.834Z,23.10
2018-08-20T07:34:02.772Z,23.00
2018-08-20T07:36:29.635Z,23.20
2018-08-20T07:38:56.555Z,23.20
2018-08-20T07:41:23.471Z,23.40
2018-08-20T07:43:50.343Z,23.60
2018-08-20T07:46:17.296Z,23.70
2018-08-20T07:48:44.497Z,23.80
2018-08-20T07:51:11.411Z,23.80
2018-08-20T07:53:38.328Z,23.80
2018-08-20T07:56:05.279Z,23.90
2018-08-20T07:58:32.152Z,23.70
2018-08-20T08:00:59.024Z,23.60
2018-08-20T08:03:31.422Z,23.70
2018-08-20T08:05:59.339Z,23.70
2018-08-20T08:08:26.440Z,23.60
2018-08-20T08:10:53.352Z,23.80
2018-08-20T08:13:20.260Z,23.80
2018-08-20T08:15:47.161Z,23.90
2018-08-20T08:18:14.060Z,24.20
2018-08-20T08:20:40.974Z,24.10
2018-08-20T08:23:13.648Z,24.20
2018-08-20T08:25:40.803Z,24.30
2018-08-20T08:28:07.684Z,24.40
2018-08-20T08:30:34.640Z,24.90
2018-08-20T08:33:01.613Z,25.10
2018-08-20T08:35:28.494Z,25.10
2018-08-20T08:37:55.430Z,25.00
2018-08-20T08:40:22.312Z,24.80
2018-08-20T08:42:49.208Z,24.50
2018-08-20T08:45:17.167Z,24.40
2018-08-20T08:47:44.733Z,24.30
2018-08-20T08:50:11.943Z,24.10
2018-08-20T08:52:38.856Z,24.00
2018-08-20T08:55:06.083Z,24.00
2018-08-20T08:57:32.943Z,24.10
2018-08-20T08:59:59.816Z,24.00
2018-08-20T09:02:26.767Z,24.00
2018-08-20T09:04:53.819Z,24.20
2018-08-20T09:07:20.736Z,24.40
2018-08-20T09:09:47.656Z,24.30
2018-08-20T09:12:14.568Z,24.30
2018-08-20T09:14:41.446Z,24.40
2018-08-20T09:17:08.358Z,24.50
2018-08-20T09:19:35.223Z,24.70
2018-08-20T09:22:02.130Z,24.80
2018-08-20T09:24:29.039Z,25.10
2018-08-20T09:26:55.939Z,26.10
2018-08-20T09:29:23.171Z,27.40
2018-08-20T09:31:50.063Z,27.90
2018-08-20T09:34:16.980Z,27.60
2018-08-20T09:36:43.888Z,27.10
2018-08-20T09:39:10.804Z,26.30
2018-08-20T09:41:37.679Z,25.90
2018-08-20T09:44:04.623Z,25.50
2018-08-20T09:46:31.795Z,25.40
2018-08-20T09:48:58.726Z,24.90
2018-08-20T09:51:25.587Z,24.70
2018-08-20T09:53:52.457Z,24.60
2018-08-20T09:56:19.375Z,24.80
2018-08-20T09:58:46.235Z,24.90
2018-08-20T10:01:13.156Z,25.30
2018-08-20T10:03:45.787Z,25.70
2018-08-20T10:06:13.547Z,26.30
2018-08-20T10:08:40.423Z,28.00
2018-08-20T10:11:07.421Z,29.00
2018-08-20T10:13:34.286Z,29.30
2018-08-20T10:16:01.212Z,29.40
2018-08-20T10:18:28.162Z,29.30
2018-08-20T10:20:55.003Z,28.60
2018-08-20T10:23:21.915Z,28.20
2018-08-20T10:25:48.789Z,27.70
2018-08-20T10:28:15.703Z,27.50
2018-08-20T10:30:42.615Z,27.80
2018-08-20T10:33:09.523Z,28.30
2018-08-20T10:35:36.450Z,28.10
2018-08-20T10:38:03.379Z,27.60
2018-08-20T10:40:30.215Z,27.30
2018-08-20T10:42:57.128Z,27.00
2018-08-20T10:45:29.592Z,26.70
2018-08-20T10:47:56.508Z,26.60
2018-08-20T10:50:23.382Z,26.40
2018-08-20T10:52:51.052Z,26.40
2018-08-20T10:55:17.966Z,26.30
2018-08-20T10:57:45.144Z,25.90
2018-08-20T11:00:12.511Z,25.70
2018-08-20T11:02:39.378Z,25.40
2018-08-20T11:05:07.555Z,25.60
2018-08-20T11:07:34.455Z,25.80
2018-08-20T11:10:01.329Z,25.80
2018-08-20T11:12:28.260Z,25.90
2018-08-20T11:14:55.132Z,26.10
2018-08-20T11:17:22.008Z,26.50
2018-08-20T11:19:48.916Z,27.00
2018-08-20T11:22:15.787Z,27.40
2018-08-20T11:24:42.701Z,27.70
2018-08-20T11:27:09.571Z,27.90
2018-08-20T11:29:36.475Z,27.70
2018-08-20T11:32:03.371Z,27.50
2018-08-20T11:34:30.616Z,27.10
2018-08-20T11:36:57.487Z,27.00
2018-08-20T11:39:24.363Z,27.00
2018-08-20T11:41:51.282Z,26.50
2018-08-20T11:44:18.155Z,26.30
2018-08-20T11:46:45.032Z,26.20
2018-08-20T11:49:12.001Z,26.20
2018-08-20T11:51:38.876Z,25.90
2018-08-20T11:54:06.128Z,25.60
2018-08-20T11:56:33.639Z,25.50
2018-08-20T11:59:00.508Z,25.80
2018-08-20T12:01:27.395Z,25.90
2018-08-20T12:03:55.240Z,26.30
2018-08-20T12:06:22.665Z,26.30
2018-08-20T12:08:49.848Z,26.80
2018-08-20T12:11:16.851Z,27.50
2018-08-20T12:13:43.735Z,28.10
2018-08-20T12:16:10.656Z,29.00
2018-08-20T12:18:37.520Z,29.40
2018-08-20T12:21:04.404Z,29.10
2018-08-20T12:23:31.733Z,28.60
2018-08-20T12:25:58.635Z,28.50
2018-08-20T12:28:25.592Z,28.30
2018-08-20T12:30:52.788Z,27.80
2018-08-20T12:33:19.651Z,27.40
2018-08-20T12:35:46.522Z,26.90
2018-08-20T12:38:13.441Z,26.40
2018-08-20T12:40:40.310Z,26.00
2018-08-20T12:43:07.180Z,25.70
2018-08-20T12:45:34.119Z,25.70
2018-08-20T12:48:00.984Z,25.40
2018-08-20T12:50:27.887Z,25.00
2018-08-20T12:52:54.892Z,24.90
2018-08-20T12:55:21.792Z,24.80
2018-08-20T12:57:48.707Z,24.80
2018-08-20T13:00:15.616Z,24.70
2018-08-20T13:02:42.529Z,24.80
2018-08-20T13:05:09.404Z,24.60
2018-08-20T13:07:36.317Z,24.70
2018-08-20T13:10:03.730Z,24.80
2018-08-20T13:12:30.608Z,25.10
2018-08-20T13:14:57.482Z,25.40
2018-08-20T13:17:24.400Z,25.30
2018-08-20T13:19:51.328Z,25.30
2018-08-20T13:22:18.240Z,25.30
2018-08-20T13:24:45.152Z,25.10
2018-08-20T13:27:12.067Z,25.00
2018-08-20T13:29:39.232Z,25.00
2018-08-20T13:32:06.143Z,25.00
2018-08-20T13:34:33.055Z,25.00
2018-08-20T13:37:00.155Z,25.20
2018-08-20T13:39:27.060Z,25.90
2018-08-20T13:41:54.147Z,26.40
2018-08-20T13:44:21.055Z,26.30
2018-08-20T13:46:47.986Z,26.10
2018-08-20T13:49:15.136Z,26.20
2018-08-20T13:51:42.047Z,26.30
2018-08-20T13:54:08.992Z,26.30
2018-08-20T13:56:35.924Z,25.60
2018-08-20T13:59:02.808Z,25.30
2018-08-20T14:01:29.679Z,25.10
2018-08-20T14:03:57.447Z,25.00
2018-08-20T14:06:24.331Z,24.80
2018-08-20T14:08:51.201Z,24.50
2018-08-20T14:11:18.112Z,24.20
2018-08-20T14:13:45.049Z,24.00
2018-08-20T14:16:12.136Z,23.60
2018-08-20T14:18:39.000Z,23.50
2018-08-20T14:21:08.899Z,23.40
2018-08-20T14:23:36.064Z,23.40
2018-08-20T14:26:03.068Z,23.40
2018-08-20T14:28:30.467Z,23.50
2018-08-20T14:30:57.331Z,23.50
2018-08-20T14:33:24.239Z,23.70
2018-08-20T14:35:51.355Z,23.80
2018-08-20T14:38:18.277Z,23.90
2018-08-20T14:40:45.188Z,24.00
2018-08-20T14:43:12.054Z,24.20
2018-08-20T14:45:44.627Z,24.20
2018-08-20T14:48:11.491Z,24.00
2018-08-20T14:50:38.363Z,23.90
2018-08-20T14:53:05.303Z,23.90
2018-08-20T14:55:32.264Z,23.90
2018-08-20T14:57:59.176Z,23.90
2018-08-20T15:00:26.049Z,23.90
2018-08-20T15:02:52.968Z,24.10
2018-08-20T15:05:19.832Z,24.40
2018-08-20T15:07:47.119Z,24.40
2018-08-20T15:10:14.032Z,24.50
2018-08-20T15:12:41.819Z,24.50
2018-08-20T15:15:08.856Z,24.60
2018-08-20T15:17:36.011Z,24.70
2018-08-20T15:20:03.268Z,24.80
2018-08-20T15:22:30.139Z,24.80
2018-08-20T15:24:57.040Z,24.90
2018-08-20T15:27:23.907Z,25.10
2018-08-20T15:29:50.834Z,25.10
2018-08-20T15:32:17.756Z,25.20
2018-08-20T15:34:44.598Z,25.30
2018-08-20T15:37:11.512Z,25.40
2018-08-20T15:39:38.419Z,25.30
2018-08-20T15:42:05.306Z,25.30
2018-08-20T15:44:32.411Z,25.30
2018-08-20T15:46:59.340Z,25.30
2018-08-20T15:49:26.213Z,25.20
2018-08-20T15:51:53.079Z,25.10
2018-08-20T15:54:19.984Z,25.10
2018-08-20T15:56:46.851Z,25.10
2018-08-20T15:59:13.807Z,25.00
2018-08-20T16:01:40.686Z,24.80
2018-08-20T16:04:07.896Z,24.70
2018-08-20T16:06:34.811Z,24.70
2018-08-20T16:09:01.810Z,24.50
2018-08-20T16:11:28.746Z,24.40
2018-08-20T16:13:55.663Z,24.30
2018-08-20T16:16:22.533Z,24.20
2018-08-20T16:18:49.443Z,24.30
2018-08-20T16:21:16.355Z,24.20
2018-08-20T16:23:43.523Z,24.10
2018-08-20T16:26:10.396Z,24.10
2018-08-20T16:28:37.268Z,24.10
2018-08-20T16:31:04.292Z,24.10
2018-08-20T16:33:31.165Z,24.10
2018-08-20T16:35:58.079Z,24.20
2018-08-20T16:38:24.995Z,24.10
2018-08-20T16:40:51.862Z,24.10
2018-08-20T16:43:18.775Z,24.10
2018-08-20T16:45:45.688Z,24.20
2018-08-20T16:48:12.584Z,24.10
2018-08-20T16:50:39.489Z,24.00
2018-08-20T16:53:06.411Z,24.00
2018-08-20T16:55:33.311Z,24.00
2018-08-20T16:58:00.224Z,24.00
2018-08-20T17:00:27.403Z,24.10
2018-08-20T17:02:54.620Z,24.10
2018-08-20T17:05:21.524Z,23.90
2018-08-20T17:07:48.382Z,23.60
2018-08-20T17:10:15.316Z,23.60
2018-08-20T17:12:42.343Z,23.50
2018-08-20T17:15:10.819Z,23.40
2018-08-20T17:17:38.539Z,23.30
2018-08-20T17:20:05.891Z,23.20
2018-08-20T17:22:32.812Z,23.20
2018-08-20T17:24:59.686Z,23.10
2018-08-20T17:27:26.575Z,23.10
2018-08-20T17:29:53.875Z,23.00
2018-08-20T17:32:20.755Z,22.90
2018-08-20T17:34:47.618Z,22.90
2018-08-20T17:37:14.540Z,22.90
2018-08-20T17:39:51.800Z,22.80
2018-08-20T17:42:18.702Z,22.70
2018-08-20T17:44:45.655Z,22.60
2018-08-20T17:47:17.147Z,22.60
2018-08-20T17:49:44.016Z,22.60
2018-08-20T17:52:10.927Z,22.50
2018-08-20T17:54:37.823Z,22.50
2018-08-20T17:57:04.736Z,22.50
2018-08-20T17:59:31.600Z,22.40
2018-08-20T18:01:58.596Z,22.40
2018-08-20T18:04:25.463Z,22.30
2018-08-20T18:06:54.395Z,22.30
2018-08-20T18:09:21.296Z,22.30
2018-08-20T18:11:53.315Z,22.20
2018-08-20T18:14:21.424Z,22.20
2018-08-20T18:16:48.287Z,22.20
2018-08-20T18:19:15.624Z,22.10
2018-08-20T18:21:42.492Z,22.10
2018-08-20T18:24:11.867Z,22.00
2018-08-20T18:26:43.166Z,22.00
2018-08-20T18:29:10.096Z,22.00
2018-08-20T18:31:37.105Z,21.90
2018-08-20T18:34:04.124Z,21.90
2018-08-20T18:36:31.008Z,21.90
2018-08-20T18:39:01.604Z,21.90
2018-08-20T18:42:02.467Z,21.80
2018-08-20T18:44:29.342Z,21.70
2018-08-20T18:46:56.215Z,21.70
2018-08-20T18:49:23.515Z,21.60
2018-08-20T18:51:51.107Z,21.60
2018-08-20T18:54:17.980Z,21.50
2018-08-20T18:56:48.491Z,21.50
2018-08-20T18:59:15.413Z,21.40
2018-08-20T19:01:42.332Z,21.30
2018-08-20T19:04:09.203Z,21.30
2018-08-20T19:06:36.123Z,21.30
2018-08-20T19:09:04.152Z,21.20
2018-08-20T19:11:31.114Z,21.20
2018-08-20T19:14:03.393Z,21.10
2018-08-20T19:16:34.684Z,21.20
2018-08-20T19:19:01.868Z,21.10
2018-08-20T19:21:29.327Z,21.10
2018-08-20T19:23:57.651Z,21.10
2018-08-20T19:26:25.195Z,21.10
2018-08-20T19:28:52.058Z,21.10
2018-08-20T19:31:18.968Z,21.20
2018-08-20T19:33:45.871Z,21.10
2018-08-20T19:36:12.844Z,21.10
2018-08-20T19:38:39.687Z,21.00
2018-08-20T19:41:12.677Z,21.00
2018-08-20T19:43:45.345Z,21.00
2018-08-20T19:46:12.221Z,21.00
2018-08-20T19:48:39.413Z,21.00
2018-08-20T19:51:08.244Z,21.00
2018-08-20T19:53:35.191Z,21.00
2018-08-20T19:56:02.064Z,21.00
2018-08-20T19:58:32.291Z,21.10
2018-08-20T20:01:04.794Z,21.10
2018-08-20T20:03:32.744Z,21.00
2018-08-20T20:05:59.791Z,21.00
2018-08-20T20:08:26.663Z,21.00
2018-08-20T20:10:53.579Z,21.00
2018-08-20T20:13:20.451Z,21.00
2018-08-20T20:15:51.867Z,21.00
2018-08-20T20:18:18.747Z,21.00
2018-08-20T20:20:45.683Z,21.00
2018-08-20T20:23:12.538Z,20.90
2018-08-20T20:25:39.460Z,20.90
2018-08-20T20:28:06.327Z,20.80
2018-08-20T20:30:33.198Z,20.80
2018-08-20T20:33:00.112Z,20.70
2018-08-20T20:35:27.028Z,20.70
2018-08-20T20:37:53.999Z,20.60
2018-08-20T20:40:21.008Z,20.60
2018-08-20T20:42:47.879Z,20.50
2018-08-20T20:45:14.823Z,20.50
2018-08-20T20:47:41.731Z,20.50
2018-08-20T20:50:08.595Z,20.50
2018-08-20T20:52:35.805Z,20.50
2018-08-20T20:55:02.711Z,20.40
2018-08-20T20:57:29.579Z,20.40
2018-08-20T20:59:56.487Z,20.40
2018-08-20T21:02:23.351Z,20.30
2018-08-20T21:04:50.254Z,20.30
2018-08-20T21:07:22.792Z,20.30
2018-08-20T21:09:49.764Z,20.30
2018-08-20T21:12:17.007Z,20.30
2018-08-20T21:14:44.083Z,20.20
2018-08-20T21:17:11.031Z,20.20
2018-08-20T21:19:37.989Z,20.20
2018-08-20T21:22:05.032Z,20.20
2018-08-20T21:24:31.947Z,20.20
2018-08-20T21:26:59.112Z,20.20
2018-08-20T21:29:26.391Z,20.20
2018-08-20T21:31:53.264Z,20.30
2018-08-20T21:34:21.483Z,20.20
2018-08-20T21:36:48.610Z,20.20
2018-08-20T21:39:15.540Z,20.10
2018-08-20T21:41:42.410Z,20.10
2018-08-20T21:44:09.271Z,20.20
2018-08-20T21:46:36.196Z,20.10
2018-08-20T21:49:03.108Z,20.10
2018-08-20T21:52:01.223Z,20.20
2018-08-20T21:54:33.760Z,20.10
2018-08-20T21:57:00.743Z,20.10
2018-08-20T21:59:27.765Z,20.10
2018-08-20T22:01:54.631Z,20.10
2018-08-20T22:04:21.967Z,20.10
2018-08-20T22:06:49.342Z,20.10
2018-08-20T22:09:16.257Z,20.00
2018-08-20T22:11:43.159Z,20.00
2018-08-20T22:14:10.120Z,20.00
2018-08-20T22:16:37.108Z,20.00
2018-08-20T22:19:04.248Z,20.00
2018-08-20T22:21:31.167Z,20.10
2018-08-20T22:23:58.661Z,20.10
2018-08-20T22:26:25.608Z,20.10
2018-08-20T22:28:52.507Z,20.10
2018-08-20T22:31:19.812Z,20.10
2018-08-20T22:33:52.711Z,20.10
2018-08-20T22:36:19.572Z,20.10
2018-08-20T22:38:50.968Z,20.10
2018-08-20T22:41:17.832Z,20.10
2018-08-20T22:43:44.706Z,20.10
2018-08-20T22:46:11.603Z,20.00
2018-08-20T22:48:38.458Z,20.00
2018-08-20T22:51:09.251Z,20.00
2018-08-20T22:53:36.155Z,19.90
2018-08-20T22:56:08.727Z,19.90
2018-08-20T22:58:35.640Z,19.90
2018-08-20T23:01:02.496Z,19.90
2018-08-20T23:03:29.387Z,19.90
2018-08-20T23:05:56.291Z,19.90
2018-08-20T23:08:23.156Z,19.90
2018-08-20T23:10:50.118Z,19.90
2018-08-20T23:13:16.984Z,19.90
2018-08-20T23:15:43.894Z,19.90
2018-08-20T23:18:10.756Z,19.90
2018-08-20T23:20:37.658Z,19.90
2018-08-20T23:23:04.607Z,19.80
2018-08-20T23:25:31.473Z,19.80
2018-08-20T23:27:58.393Z,19.80
2018-08-20T23:30:25.250Z,19.80
2018-08-20T23:32:52.146Z,19.70
2018-08-20T23:35:19.056Z,19.70
2018-08-20T23:37:45.939Z,19.70
2018-08-20T23:40:12.843Z,19.70
2018-08-20T23:42:39.711Z,19.70
2018-08-20T23:45:06.644Z,19.70
2018-08-20T23:47:33.595Z,19.70
2018-08-20T23:50:00.531Z,19.70
2018-08-20T23:52:27.396Z,19.70
2018-08-20T23:54:54.316Z,19.70
2018-08-20T23:57:21.180Z,19.70
2018-08-20T23:59:48.041Z,19.70
